createdAt,value
2022-10-02T00:00:58.027Z,88
2022-10-02T00:01:58.134Z,88.03
2022-10-02T00:02:58.037Z,88
2022-10-02T00:03:58.075Z,88.05
2022-10-02T00:04:58.036Z,87.94
2022-10-02T00:05:58.034Z,88.11
2022-10-02T00:06:58.043Z,88.15
2022-10-02T00:07:58.050Z,88.35
2022-10-02T00:08:58.032Z,88.41
2022-10-02T00:09:58.028Z,88.28
2022-10-02T00:10:58.050Z,88.36
2022-10-02T00:11:58.037Z,87.98
2022-10-02T00:12:58.039Z,88.05
2022-10-02T00:13:58.030Z,88.18
2022-10-02T00:14:58.038Z,88
2022-10-02T00:15:58.151Z,87.7
2022-10-02T00:16:58.117Z,87.83
2022-10-02T00:17:58.060Z,87.63
2022-10-02T00:18:58.035Z,87.37
2022-10-02T00:19:58.041Z,87.29
2022-10-02T00:20:58.032Z,87.62
2022-10-02T00:21:58.039Z,87.99
2022-10-02T00:22:58.057Z,87.7
2022-10-02T00:23:58.034Z,87.29
2022-10-02T00:24:58.041Z,87.33
2022-10-02T00:25:58.054Z,87.13
2022-10-02T00:26:58.046Z,87.18
2022-10-02T00:27:58.115Z,87.18
2022-10-02T00:28:58.035Z,87.28
2022-10-02T00:29:58.119Z,87.67
2022-10-02T00:30:58.022Z,87.62
2022-10-02T00:31:58.179Z,87.33
2022-10-02T00:32:58.036Z,87.21
2022-10-02T00:33:58.040Z,87.4
2022-10-02T00:34:58.037Z,87.22
2022-10-02T00:35:58.109Z,87.18
2022-10-02T00:36:58.029Z,87.31
2022-10-02T00:37:58.040Z,87.29
2022-10-02T00:38:58.047Z,87.45
2022-10-02T00:39:58.019Z,87.46
2022-10-02T00:40:58.051Z,87.09
2022-10-02T00:41:58.017Z,86.67
2022-10-02T00:42:58.027Z,86.75
2022-10-02T00:43:58.024Z,86.69
2022-10-02T00:44:58.026Z,86.73
2022-10-02T00:45:58.109Z,86.7
2022-10-02T00:46:58.028Z,86.5
2022-10-02T00:47:58.043Z,86.21
2022-10-02T00:48:58.013Z,86.63
2022-10-02T00:49:58.021Z,86.9
2022-10-02T00:50:58.037Z,87.04
2022-10-02T00:51:58.021Z,87.04
2022-10-02T00:52:58.043Z,86.94
2022-10-02T00:53:58.018Z,86.81
2022-10-02T00:54:58.041Z,87.07
2022-10-02T00:55:58.050Z,87.38
2022-10-02T00:56:58.040Z,87.64
2022-10-02T00:57:58.046Z,87.56
2022-10-02T00:58:58.040Z,87.45
2022-10-02T00:59:58.029Z,87.38
2022-10-02T01:00:58.235Z,87.52
2022-10-02T01:01:58.082Z,87.29
2022-10-02T01:02:58.049Z,87.16
2022-10-02T01:03:58.031Z,87.01
2022-10-02T01:04:58.031Z,87.01
2022-10-02T01:05:58.040Z,87.2
2022-10-02T01:06:58.041Z,87.5
2022-10-02T01:07:58.050Z,87.54
2022-10-02T01:08:58.032Z,87.68
2022-10-02T01:09:58.043Z,87.43
2022-10-02T01:10:58.057Z,87.15
2022-10-02T01:11:58.038Z,86.98
2022-10-02T01:12:58.047Z,87.34
2022-10-02T01:13:58.039Z,87.32
2022-10-02T01:14:58.038Z,87.3
2022-10-02T01:15:58.046Z,87.04
2022-10-02T01:16:58.081Z,87.03
2022-10-02T01:17:58.042Z,87.06
2022-10-02T01:18:58.036Z,87.06
2022-10-02T01:19:58.029Z,87.22
2022-10-02T01:20:58.034Z,87.36
2022-10-02T01:21:58.038Z,87.25
2022-10-02T01:22:58.037Z,87.18
2022-10-02T01:23:58.024Z,87.46
2022-10-02T01:24:58.028Z,87.59
2022-10-02T01:25:58.051Z,87.58
2022-10-02T01:26:58.019Z,87.58
2022-10-02T01:27:58.100Z,87.33
2022-10-02T01:28:58.023Z,87.2
2022-10-02T01:29:58.030Z,86.91
2022-10-02T01:30:58.022Z,87.06
2022-10-02T01:31:58.093Z,87.15
2022-10-02T01:32:58.035Z,87.5
2022-10-02T01:33:58.024Z,87.74
2022-10-02T01:34:58.028Z,87.54
2022-10-02T01:35:58.023Z,87.22
2022-10-02T01:36:58.021Z,87.24
2022-10-02T01:37:58.041Z,87.56
2022-10-02T01:38:58.033Z,87.8
2022-10-02T01:39:58.025Z,88.09
2022-10-02T01:40:58.036Z,87.9
2022-10-02T01:41:58.008Z,87.77
2022-10-02T01:42:58.049Z,87.78
2022-10-02T01:43:58.009Z,88.32
2022-10-02T01:44:58.013Z,88.35
2022-10-02T01:45:58.045Z,88.11
2022-10-02T01:46:58.019Z,88.12
2022-10-02T01:47:58.036Z,88.5
2022-10-02T01:48:58.009Z,88.5
2022-10-02T01:49:58.014Z,88.63
2022-10-02T01:50:58.013Z,89.12
2022-10-02T01:51:58.012Z,89.29
2022-10-02T01:52:58.019Z,89.34
2022-10-02T01:53:58.011Z,89.37
2022-10-02T01:54:58.017Z,89.44
2022-10-02T01:55:58.078Z,89.68
2022-10-02T01:56:58.021Z,90.08
2022-10-02T01:57:58.031Z,90.31
2022-10-02T01:58:58.025Z,90.18
2022-10-02T01:59:58.025Z,90.27
2022-10-02T02:00:58.086Z,90.02
2022-10-02T02:01:58.102Z,89.99
2022-10-02T02:02:58.055Z,90.14
2022-10-02T02:03:58.028Z,90.05
2022-10-02T02:04:58.028Z,90.28
2022-10-02T02:05:58.028Z,90.29
2022-10-02T02:06:58.027Z,90.18
2022-10-02T02:07:58.033Z,90.29
2022-10-02T02:09:01.739Z,90.36
2022-10-02T02:09:58.040Z,90.19
2022-10-02T02:10:58.040Z,90.07
2022-10-02T02:11:58.023Z,90.24
2022-10-02T02:12:58.038Z,90.04
2022-10-02T02:13:58.028Z,90.06
2022-10-02T02:14:58.028Z,90.39
2022-10-02T02:15:58.185Z,90.66
2022-10-02T02:16:58.050Z,90.41
2022-10-02T02:17:58.038Z,90.47
2022-10-02T02:18:58.039Z,90.45
2022-10-02T02:19:58.021Z,90.17
2022-10-02T02:20:58.027Z,90.02
2022-10-02T02:21:58.027Z,90.26
2022-10-02T02:22:58.051Z,90.26
2022-10-02T02:23:58.013Z,90.14
2022-10-02T02:24:58.042Z,90.13
2022-10-02T02:25:58.045Z,90.34
2022-10-02T02:26:58.029Z,90.11
2022-10-02T02:27:58.079Z,90.16
2022-10-02T02:28:58.024Z,90.21
2022-10-02T02:29:58.030Z,89.99
2022-10-02T02:30:58.009Z,90.1
2022-10-02T02:31:58.173Z,90.19
2022-10-02T02:32:58.038Z,90.22
2022-10-02T02:33:58.039Z,90.17
2022-10-02T02:34:58.022Z,89.92
2022-10-02T02:35:58.023Z,89.78
2022-10-02T02:36:58.038Z,89.47
2022-10-02T02:37:58.037Z,89.21
2022-10-02T02:38:58.030Z,89.21
2022-10-02T02:39:58.026Z,88.93
2022-10-02T02:40:58.041Z,88.64
2022-10-02T02:41:58.023Z,88.62
2022-10-02T02:42:58.029Z,88.56
2022-10-02T02:43:58.028Z,88.45
2022-10-02T02:44:58.040Z,88.37
2022-10-02T02:45:58.056Z,88.22
2022-10-02T02:46:58.029Z,88.25
2022-10-02T02:47:58.025Z,88.13
2022-10-02T02:48:58.005Z,88.19
2022-10-02T02:49:58.016Z,88.22
2022-10-02T02:50:58.014Z,88.24
2022-10-02T02:51:58.016Z,88.07
2022-10-02T02:52:58.021Z,88.07
2022-10-02T02:53:58.012Z,87.75
2022-10-02T02:54:58.017Z,87.65
2022-10-02T02:55:58.022Z,87.4
2022-10-02T02:56:58.018Z,87.22
2022-10-02T02:57:58.041Z,87.66
2022-10-02T02:58:58.009Z,87.49
2022-10-02T02:59:58.012Z,87.08
2022-10-02T03:00:58.084Z,87.04
2022-10-02T03:01:58.053Z,86.98
2022-10-02T03:02:58.038Z,87.06
2022-10-02T03:03:58.031Z,86.81
2022-10-02T03:04:58.028Z,86.69
2022-10-02T03:05:58.020Z,86.65
2022-10-02T03:06:58.019Z,86.74
2022-10-02T03:07:58.039Z,86.61
2022-10-02T03:08:58.029Z,86.84
2022-10-02T03:09:58.026Z,86.72
2022-10-02T03:10:58.043Z,86.74
2022-10-02T03:11:58.022Z,86.6
2022-10-02T03:12:58.048Z,86.6
2022-10-02T03:13:58.024Z,86.67
2022-10-02T03:14:58.026Z,86.85
2022-10-02T03:15:58.099Z,86.9
2022-10-02T03:16:58.036Z,87.06
2022-10-02T03:17:58.049Z,86.89
2022-10-02T03:18:58.037Z,86.98
2022-10-02T03:19:58.029Z,87.13
2022-10-02T03:20:58.024Z,86.93
2022-10-02T03:21:58.066Z,87.01
2022-10-02T03:22:58.034Z,86.96
2022-10-02T03:23:58.020Z,87.11
2022-10-02T03:24:58.031Z,86.93
2022-10-02T03:25:58.039Z,86.72
2022-10-02T03:26:58.022Z,86.85
2022-10-02T03:27:58.109Z,86.96
2022-10-02T03:28:58.094Z,87.34
2022-10-02T03:29:58.029Z,87.39
2022-10-02T03:30:58.056Z,87.37
2022-10-02T03:31:58.035Z,87.43
2022-10-02T03:32:58.041Z,87.49
2022-10-02T03:33:58.030Z,87.55
2022-10-02T03:34:58.022Z,87.67
2022-10-02T03:35:58.032Z,87.62
2022-10-02T03:36:58.028Z,87.37
2022-10-02T03:37:58.044Z,87.27
2022-10-02T03:39:20.268Z,87.7
2022-10-02T03:39:58.032Z,88.23
2022-10-02T03:40:58.050Z,88.34
2022-10-02T03:41:58.021Z,88.34
2022-10-02T03:42:58.030Z,88.68
2022-10-02T03:43:58.020Z,88.6
2022-10-02T03:44:58.032Z,88.33
2022-10-02T03:45:58.161Z,88.36
2022-10-02T03:46:58.007Z,88.19
2022-10-02T03:47:58.040Z,88.34
2022-10-02T03:48:58.033Z,88.34
2022-10-02T03:49:58.021Z,88.18
2022-10-02T03:50:58.027Z,88.14
2022-10-02T03:51:58.027Z,88.21
2022-10-02T03:52:58.031Z,88.24
2022-10-02T03:53:58.018Z,88.23
2022-10-02T03:54:58.010Z,88.53
2022-10-02T03:55:58.036Z,88.55
2022-10-02T03:56:58.020Z,88.44
2022-10-02T03:57:58.021Z,88.51
2022-10-02T03:58:58.009Z,88.5
2022-10-02T03:59:58.013Z,88.69
2022-10-02T04:00:58.005Z,88.87
2022-10-02T04:01:58.066Z,89.07
2022-10-02T04:02:58.014Z,89.1
2022-10-02T04:03:58.032Z,89.33
2022-10-02T04:04:58.017Z,89.37
2022-10-02T04:05:58.010Z,89.34
2022-10-02T04:06:58.009Z,89.3
2022-10-02T04:07:58.042Z,89.16
2022-10-02T04:08:58.015Z,89.22
2022-10-02T04:09:58.009Z,89.11
2022-10-02T04:10:58.030Z,88.88
2022-10-02T04:11:58.030Z,88.64
2022-10-02T04:12:58.032Z,88.49
2022-10-02T04:13:58.033Z,88.25
2022-10-02T04:14:58.034Z,88.39
2022-10-02T04:15:58.123Z,88.53
2022-10-02T04:16:58.009Z,88.42
2022-10-02T04:17:59.116Z,88.26
2022-10-02T04:18:58.025Z,88.18
2022-10-02T04:19:58.012Z,87.97
2022-10-02T04:20:58.028Z,87.86
2022-10-02T04:21:58.028Z,87.83
2022-10-02T04:22:58.037Z,87.67
2022-10-02T04:23:58.031Z,87.61
2022-10-02T04:24:58.036Z,87.61
2022-10-02T04:25:58.041Z,87.39
2022-10-02T04:26:58.035Z,87.27
2022-10-02T04:27:58.173Z,87.62
2022-10-02T04:28:58.039Z,87.36
2022-10-02T04:29:58.038Z,87.29
2022-10-02T04:30:58.020Z,87.3
2022-10-02T04:31:58.048Z,87.54
2022-10-02T04:32:58.043Z,87.48
2022-10-02T04:33:58.037Z,87.48
2022-10-02T04:34:58.031Z,87.89
2022-10-02T04:35:58.024Z,87.86
2022-10-02T04:36:58.041Z,87.83
2022-10-02T04:37:58.042Z,87.51
2022-10-02T04:38:58.026Z,87.45
2022-10-02T04:39:58.033Z,87.31
2022-10-02T04:40:58.050Z,87.38
2022-10-02T04:41:58.029Z,87.65
2022-10-02T04:42:58.037Z,87.74
2022-10-02T04:43:58.039Z,87.99
2022-10-02T04:44:58.036Z,87.85
2022-10-02T04:45:58.138Z,87.62
2022-10-02T04:46:58.025Z,87.72
2022-10-02T04:47:58.050Z,87.88
2022-10-02T04:48:58.020Z,88.42
2022-10-02T04:49:58.022Z,88.36
2022-10-02T04:50:58.029Z,88.27
2022-10-02T04:51:58.039Z,88.15
2022-10-02T04:52:58.035Z,88.09
2022-10-02T04:53:58.032Z,88.05
2022-10-02T04:54:58.029Z,88.17
2022-10-02T04:55:58.047Z,87.99
2022-10-02T04:56:58.030Z,87.82
2022-10-02T04:57:58.045Z,87.75
2022-10-02T04:58:58.027Z,87.62
2022-10-02T04:59:58.026Z,87.54
2022-10-02T05:00:58.064Z,87.55
2022-10-02T05:01:58.053Z,87.54
2022-10-02T05:02:58.047Z,87.62
2022-10-02T05:04:01.942Z,87.59
2022-10-02T05:04:58.017Z,87.85
2022-10-02T05:05:58.010Z,87.71
2022-10-02T05:06:58.010Z,87.64
2022-10-02T05:07:58.022Z,87.62
2022-10-02T05:08:58.011Z,87.53
2022-10-02T05:09:58.013Z,87.49
2022-10-02T05:10:58.041Z,87.5
2022-10-02T05:11:58.017Z,87.26
2022-10-02T05:12:58.017Z,87.45
2022-10-02T05:13:58.008Z,87.38
2022-10-02T05:14:58.017Z,87.41
2022-10-02T05:15:58.074Z,87.24
2022-10-02T05:16:58.009Z,87.21
2022-10-02T05:17:58.035Z,87.17
2022-10-02T05:18:58.035Z,87.16
2022-10-02T05:19:58.010Z,87.37
2022-10-02T05:20:58.023Z,87.24
2022-10-02T05:21:58.012Z,87.31
2022-10-02T05:22:58.034Z,87.33
2022-10-02T05:23:58.018Z,87.08
2022-10-02T05:24:58.102Z,87.22
2022-10-02T05:25:58.035Z,87.03
2022-10-02T05:26:58.006Z,86.72
2022-10-02T05:27:58.086Z,86.42
2022-10-02T05:28:58.025Z,86.31
2022-10-02T05:29:58.044Z,86.1
2022-10-02T05:30:58.100Z,86.05
2022-10-02T05:31:58.005Z,85.9
2022-10-02T05:32:58.046Z,85.79
2022-10-02T05:33:58.029Z,85.73
2022-10-02T05:34:58.022Z,85.54
2022-10-02T05:35:58.038Z,85.37
2022-10-02T05:36:58.013Z,85.25
2022-10-02T05:37:58.045Z,85.2
2022-10-02T05:38:58.097Z,85.05
2022-10-02T05:39:58.027Z,85.03
2022-10-02T05:40:58.040Z,84.95
2022-10-02T05:41:58.015Z,84.9
2022-10-02T05:42:58.041Z,84.75
2022-10-02T05:43:58.029Z,84.47
2022-10-02T05:44:58.032Z,84.03
2022-10-02T05:45:58.020Z,83.9
2022-10-02T05:46:58.063Z,83.89
2022-10-02T05:47:58.036Z,83.61
2022-10-02T05:48:58.021Z,83.3
2022-10-02T05:49:58.029Z,83.3
2022-10-02T05:50:58.024Z,83.19
2022-10-02T05:51:58.008Z,83.04
2022-10-02T05:52:58.046Z,83.28
2022-10-02T05:53:58.031Z,82.83
2022-10-02T05:54:58.022Z,82.48
2022-10-02T05:55:58.037Z,82.56
2022-10-02T05:56:58.010Z,82.66
2022-10-02T05:57:58.031Z,82.43
2022-10-02T05:58:58.029Z,82.53
2022-10-02T05:59:58.028Z,82.54
2022-10-02T06:00:58.121Z,82.5
2022-10-02T06:01:58.095Z,81.88
2022-10-02T06:02:58.045Z,82.03
2022-10-02T06:03:58.046Z,82.33
2022-10-02T06:04:58.024Z,82.05
2022-10-02T06:05:58.025Z,82.26
2022-10-02T06:06:58.012Z,81.87
2022-10-02T06:07:58.041Z,81.62
2022-10-02T06:08:58.029Z,81.56
2022-10-02T06:09:58.014Z,81.69
2022-10-02T06:10:58.041Z,82.07
2022-10-02T06:11:58.013Z,81.76
2022-10-02T06:12:58.020Z,82.09
2022-10-02T06:13:58.007Z,82.16
2022-10-02T06:14:58.021Z,82.28
2022-10-02T06:15:58.061Z,82.09
2022-10-02T06:16:58.019Z,81.9
2022-10-02T06:17:58.041Z,81.88
2022-10-02T06:18:58.014Z,82.02
2022-10-02T06:20:02.964Z,82.02
2022-10-02T06:20:58.014Z,82.17
2022-10-02T06:21:58.009Z,82.11
2022-10-02T06:22:58.038Z,89.26
2022-10-02T06:23:58.017Z,81.93
2022-10-02T06:24:58.007Z,81.93
2022-10-02T06:25:58.033Z,81.9
2022-10-02T06:26:58.005Z,82.03
2022-10-02T06:27:58.070Z,82.21
2022-10-02T06:28:58.020Z,82.19
2022-10-02T06:29:58.007Z,81.94
2022-10-02T06:30:58.032Z,81.9
2022-10-02T06:31:58.086Z,81.33
2022-10-02T06:32:58.049Z,81.33
2022-10-02T06:33:58.028Z,81.46
2022-10-02T06:34:58.019Z,81.61
2022-10-02T06:35:58.027Z,81.63
2022-10-02T06:36:58.015Z,81.41
2022-10-02T06:37:58.041Z,81.39
2022-10-02T06:38:58.027Z,81.5
2022-10-02T06:39:58.030Z,81.53
2022-10-02T06:40:58.044Z,81.54
2022-10-02T06:41:58.011Z,81.54
2022-10-02T06:42:58.030Z,81.74
2022-10-02T06:43:58.020Z,81.46
2022-10-02T06:44:58.033Z,81.73
2022-10-02T06:45:58.101Z,81.58
2022-10-02T06:46:58.016Z,81.82
2022-10-02T06:47:58.041Z,81.74
2022-10-02T06:48:58.020Z,81.59
2022-10-02T06:49:58.026Z,81.9
2022-10-02T06:50:58.027Z,81.56
2022-10-02T06:51:58.016Z,81.27
2022-10-02T06:52:58.046Z,80.96
2022-10-02T06:53:58.030Z,81.29
2022-10-02T06:54:58.032Z,80.88
2022-10-02T06:55:58.041Z,80.79
2022-10-02T06:56:58.024Z,80.8
2022-10-02T06:57:58.041Z,80.6
2022-10-02T06:58:58.018Z,80.68
2022-10-02T06:59:58.023Z,80.58
2022-10-02T07:00:58.089Z,80.45
2022-10-02T07:01:58.032Z,80.61
2022-10-02T07:02:58.041Z,80.42
2022-10-02T07:03:58.034Z,80.43
2022-10-02T07:04:58.034Z,80.45
2022-10-02T07:05:58.068Z,80.57
2022-10-02T07:06:58.039Z,80.95
2022-10-02T07:07:58.033Z,80.9
2022-10-02T07:08:58.027Z,80.69
2022-10-02T07:09:58.030Z,80.48
2022-10-02T07:10:58.050Z,81.1
2022-10-02T07:11:58.028Z,80.75
2022-10-02T07:12:58.038Z,80.62
2022-10-02T07:13:58.021Z,80.7
2022-10-02T07:14:58.033Z,80.74
2022-10-02T07:15:58.131Z,80.59
2022-10-02T07:16:58.026Z,80.16
2022-10-02T07:17:58.063Z,80.3
2022-10-02T07:18:58.021Z,80.41
2022-10-02T07:19:58.031Z,80.37
2022-10-02T07:20:58.025Z,80.47
2022-10-02T07:21:58.019Z,80.25
2022-10-02T07:22:58.028Z,79.42
2022-10-02T07:24:01.531Z,79.37
2022-10-02T07:24:58.017Z,79.74
2022-10-02T07:25:58.021Z,79.5
2022-10-02T07:26:58.026Z,79.78
2022-10-02T07:27:58.138Z,79.58
2022-10-02T07:28:58.017Z,79.92
2022-10-02T07:29:58.014Z,80.15
2022-10-02T07:30:58.010Z,80.25
2022-10-02T07:31:58.034Z,80.25
2022-10-02T07:32:58.043Z,80.06
2022-10-02T07:33:58.056Z,80.16
2022-10-02T07:34:58.050Z,79.89
2022-10-02T07:35:58.013Z,79.84
2022-10-02T07:36:58.012Z,79.81
2022-10-02T07:37:58.042Z,79.36
2022-10-02T07:38:58.007Z,79.46
2022-10-02T07:39:58.023Z,79.39
2022-10-02T07:40:59.903Z,79.38
2022-10-02T07:41:58.024Z,79
2022-10-02T07:42:58.031Z,78.73
2022-10-02T07:43:58.023Z,78.89
2022-10-02T07:44:58.023Z,78.92
2022-10-02T07:45:58.120Z,78.52
2022-10-02T07:46:58.023Z,78.38
2022-10-02T07:47:58.037Z,78.38
2022-10-02T07:48:58.034Z,78.49
2022-10-02T07:49:58.026Z,78.52
2022-10-02T07:50:58.024Z,78.34
2022-10-02T07:51:58.023Z,78.56
2022-10-02T07:52:58.030Z,78.04
2022-10-02T07:53:58.026Z,78.51
2022-10-02T07:54:58.028Z,78.25
2022-10-02T07:55:58.047Z,78.17
2022-10-02T07:56:58.027Z,78.22
2022-10-02T07:57:58.042Z,78.54
2022-10-02T07:58:58.030Z,78.02
2022-10-02T07:59:58.027Z,78.22
2022-10-02T08:00:58.041Z,77.99
2022-10-02T08:01:58.127Z,77.54
2022-10-02T08:02:58.067Z,78
2022-10-02T08:03:58.031Z,77.49
2022-10-02T08:04:58.032Z,77.29
2022-10-02T08:05:58.022Z,77.25
2022-10-02T08:06:58.030Z,77.42
2022-10-02T08:07:58.039Z,77.27
2022-10-02T08:08:58.019Z,77.2
2022-10-02T08:09:58.026Z,77.34
2022-10-02T08:10:58.044Z,77.32
2022-10-02T08:11:58.027Z,77.49
2022-10-02T08:12:58.042Z,77.16
2022-10-02T08:13:58.022Z,76.98
2022-10-02T08:14:58.032Z,76.56
2022-10-02T08:15:58.089Z,76.84
2022-10-02T08:16:58.018Z,76.68
2022-10-02T08:18:07.038Z,76.66
2022-10-02T08:18:58.030Z,76.83
2022-10-02T08:19:58.031Z,76.81
2022-10-02T08:20:58.022Z,76.36
2022-10-02T08:21:58.027Z,76.31
2022-10-02T08:22:58.044Z,76.14
2022-10-02T08:23:58.019Z,76.32
2022-10-02T08:24:58.034Z,76.2
2022-10-02T08:25:58.041Z,76.39
2022-10-02T08:26:58.032Z,76
2022-10-02T08:27:58.078Z,76.7
2022-10-02T08:28:58.034Z,76.32
2022-10-02T08:29:58.028Z,76.05
2022-10-02T08:30:58.031Z,76.1
2022-10-02T08:31:58.082Z,75.72
2022-10-02T08:32:58.101Z,75.26
2022-10-02T08:33:58.062Z,75.51
2022-10-02T08:34:58.044Z,75.44
2022-10-02T08:35:58.015Z,75.45
2022-10-02T08:36:58.013Z,75.55
2022-10-02T08:37:58.019Z,75.37
2022-10-02T08:38:58.020Z,75.19
2022-10-02T08:39:58.024Z,75.31
2022-10-02T08:40:58.188Z,75.46
2022-10-02T08:41:58.013Z,75.38
2022-10-02T08:42:58.019Z,74.85
2022-10-02T08:43:58.014Z,74.91
2022-10-02T08:44:58.029Z,75.12
2022-10-02T08:45:58.107Z,75.37
2022-10-02T08:46:58.015Z,75.07
2022-10-02T08:47:58.020Z,75.08
2022-10-02T08:48:58.008Z,75.08
2022-10-02T08:49:58.015Z,74.97
2022-10-02T08:50:58.013Z,74.79
2022-10-02T08:51:58.041Z,74.49
2022-10-02T08:52:58.034Z,74.86
2022-10-02T08:53:58.014Z,75.13
2022-10-02T08:54:58.021Z,75.17
2022-10-02T08:55:58.031Z,75.27
2022-10-02T08:56:58.042Z,75.35
2022-10-02T08:57:58.041Z,75.27
2022-10-02T08:58:58.031Z,74.66
2022-10-02T08:59:58.028Z,74.62
2022-10-02T09:00:58.118Z,74.3
2022-10-02T09:02:00.036Z,74.39
2022-10-02T09:02:58.037Z,74.34
2022-10-02T09:03:58.036Z,74.16
2022-10-02T09:04:58.020Z,73.86
2022-10-02T09:05:58.018Z,74.28
2022-10-02T09:06:58.026Z,74.35
2022-10-02T09:07:58.054Z,73.86
2022-10-02T09:08:58.026Z,74.24
2022-10-02T09:09:58.022Z,74.46
2022-10-02T09:10:58.027Z,73.99
2022-10-02T09:11:58.038Z,73.56
2022-10-02T09:12:58.038Z,73.88
2022-10-02T09:13:58.022Z,73.89
2022-10-02T09:14:58.901Z,73.31
2022-10-02T09:15:58.049Z,73.38
2022-10-02T09:16:58.022Z,73.24
2022-10-02T09:17:58.045Z,72.27
2022-10-02T09:18:58.022Z,72.11
2022-10-02T09:19:58.024Z,71.82
2022-10-02T09:20:58.019Z,72.01
2022-10-02T09:21:58.020Z,72.12
2022-10-02T09:22:58.036Z,72.73
2022-10-02T09:23:58.026Z,72.5
2022-10-02T09:24:58.023Z,72.6
2022-10-02T09:25:58.021Z,72.52
2022-10-02T09:26:58.035Z,73.43
2022-10-02T09:27:58.099Z,73.06
2022-10-02T09:28:58.027Z,72.98
2022-10-02T09:29:58.020Z,72.38
2022-10-02T09:30:58.025Z,72.39
2022-10-02T09:31:58.113Z,72.09
2022-10-02T09:32:58.023Z,72.39
2022-10-02T09:33:58.022Z,71.57
2022-10-02T09:34:58.026Z,70.54
2022-10-02T09:35:58.028Z,70.45
2022-10-02T09:36:58.024Z,70.99
2022-10-02T09:37:58.044Z,71.01
2022-10-02T09:38:58.021Z,70.56
2022-10-02T09:39:58.026Z,69.96
2022-10-02T09:40:58.025Z,70.5
2022-10-02T09:41:58.047Z,71.06
2022-10-02T09:42:58.078Z,70.77
2022-10-02T09:43:58.007Z,70.45
2022-10-02T09:45:01.227Z,70.25
2022-10-02T09:45:58.091Z,70.32
2022-10-02T09:46:58.020Z,69.36
2022-10-02T09:47:58.033Z,69.87
2022-10-02T09:48:58.021Z,68.79
2022-10-02T09:49:58.021Z,70.07
2022-10-02T09:50:58.009Z,69.64
2022-10-02T09:51:58.021Z,68.9
2022-10-02T09:52:58.036Z,69.7
2022-10-02T09:53:58.021Z,68.64
2022-10-02T09:54:58.005Z,68.59
2022-10-02T09:55:58.016Z,68.16
2022-10-02T09:56:58.036Z,68.36
2022-10-02T09:57:58.037Z,67.75
2022-10-02T09:58:58.016Z,67.54
2022-10-02T09:59:58.026Z,67.55
2022-10-02T10:00:58.046Z,67.19
2022-10-02T10:01:58.095Z,66.85
2022-10-02T10:02:58.036Z,66.83
2022-10-02T10:03:58.032Z,66.95
2022-10-02T10:05:06.041Z,66.62
2022-10-02T10:05:58.023Z,66.41
2022-10-02T10:06:58.026Z,66.89
2022-10-02T10:07:58.115Z,66.85
2022-10-02T10:08:58.030Z,66.83
2022-10-02T10:09:58.027Z,66.79
2022-10-02T10:10:58.025Z,66.79
2022-10-02T10:11:58.040Z,65.99
2022-10-02T10:12:58.040Z,66.3
2022-10-02T10:13:58.026Z,66.24
2022-10-02T10:14:58.033Z,66.24
2022-10-02T10:15:58.038Z,66.25
2022-10-02T10:16:58.028Z,66.76
2022-10-02T10:17:58.038Z,67.22
2022-10-02T10:18:58.028Z,67.08
2022-10-02T10:19:58.028Z,66.91
2022-10-02T10:20:58.032Z,66.95
2022-10-02T10:21:58.018Z,66.86
2022-10-02T10:22:58.035Z,66.86
2022-10-02T10:23:58.024Z,67.39
2022-10-02T10:24:58.023Z,67.51
2022-10-02T10:25:58.029Z,67.28
2022-10-02T10:26:58.038Z,67.34
2022-10-02T10:27:58.088Z,67.34
2022-10-02T10:28:58.034Z,67.51
2022-10-02T10:29:58.020Z,67.39
2022-10-02T10:30:58.027Z,67.25
2022-10-02T10:31:58.094Z,67.3
2022-10-02T10:32:58.081Z,67.27
2022-10-02T10:33:58.022Z,67.03
2022-10-02T10:34:58.037Z,67.42
2022-10-02T10:35:58.039Z,67.53
2022-10-02T10:36:58.022Z,67.94
2022-10-02T10:37:58.052Z,67.82
2022-10-02T10:38:58.019Z,67.89
2022-10-02T10:39:58.027Z,68.11
2022-10-02T10:40:58.028Z,67.73
2022-10-02T10:41:58.039Z,67.49
2022-10-02T10:43:06.889Z,68.35
2022-10-02T10:43:58.038Z,67.96
2022-10-02T10:44:58.034Z,68.07
2022-10-02T10:45:58.081Z,67.99
2022-10-02T10:46:58.025Z,68.54
2022-10-02T10:47:58.044Z,68.39
2022-10-02T10:48:58.029Z,68.26
2022-10-02T10:49:58.018Z,68.04
2022-10-02T10:50:58.026Z,68.46
2022-10-02T10:51:58.053Z,68.42
2022-10-02T10:52:58.024Z,68.16
2022-10-02T10:54:01.754Z,68
2022-10-02T10:54:58.013Z,67.94
2022-10-02T10:55:58.016Z,68
2022-10-02T10:56:58.040Z,67.69
2022-10-02T10:57:58.100Z,71.8
2022-10-02T10:58:58.008Z,67.86
2022-10-02T10:59:58.016Z,67.85
2022-10-02T11:00:58.028Z,68.78
2022-10-02T11:01:58.042Z,69.07
2022-10-02T11:02:58.036Z,69.63
2022-10-02T11:03:58.013Z,70.07
2022-10-02T11:04:58.005Z,71.33
2022-10-02T11:05:58.012Z,71.33
2022-10-02T11:06:58.020Z,71.98
2022-10-02T11:07:58.039Z,72.37
2022-10-02T11:08:58.017Z,72.29
2022-10-02T11:09:58.020Z,72.77
2022-10-02T11:10:58.017Z,72.52
2022-10-02T11:11:58.036Z,73.05
2022-10-02T11:12:58.020Z,72.57
2022-10-02T11:13:58.033Z,72.54
2022-10-02T11:14:58.029Z,72.86
2022-10-02T11:15:58.022Z,72.73
2022-10-02T11:16:58.021Z,72.53
2022-10-02T11:17:58.039Z,72.83
2022-10-02T11:18:58.025Z,73.1
2022-10-02T11:19:58.031Z,73.02
2022-10-02T11:20:58.021Z,72.93
2022-10-02T11:21:58.026Z,73.79
2022-10-02T11:22:58.058Z,73.95
2022-10-02T11:23:58.024Z,73.7
2022-10-02T11:24:58.022Z,73.83
2022-10-02T11:25:58.020Z,73.15
2022-10-02T11:26:58.032Z,72.89
2022-10-02T11:27:58.089Z,72.86
2022-10-02T11:28:58.026Z,72.28
2022-10-02T11:29:58.018Z,72.56
2022-10-02T11:30:58.021Z,72.66
2022-10-02T11:31:58.060Z,72.78
2022-10-02T11:32:58.025Z,73.12
2022-10-02T11:33:58.032Z,72.9
2022-10-02T11:34:58.041Z,73.15
2022-10-02T11:35:58.031Z,73.17
2022-10-02T11:36:58.025Z,73.13
2022-10-02T11:38:03.048Z,73.54
2022-10-02T11:38:58.029Z,73.27
2022-10-02T11:39:58.022Z,73.06
2022-10-02T11:40:58.025Z,73.22
2022-10-02T11:41:58.050Z,72.85
2022-10-02T11:42:58.036Z,73.41
2022-10-02T11:43:58.025Z,73.49
2022-10-02T11:44:58.029Z,73.53
2022-10-02T11:45:58.118Z,73.21
2022-10-02T11:46:58.032Z,73.18
2022-10-02T11:47:58.051Z,73.08
2022-10-02T11:48:58.027Z,72.58
2022-10-02T11:49:58.025Z,72.14
2022-10-02T11:50:58.021Z,72.24
2022-10-02T11:51:58.021Z,71.81
2022-10-02T11:52:58.030Z,71.67
2022-10-02T11:53:58.022Z,70.76
2022-10-02T11:54:58.025Z,70.97
2022-10-02T11:55:58.033Z,71.03
2022-10-02T11:56:58.043Z,70.66
2022-10-02T11:57:58.033Z,70.51
2022-10-02T11:58:58.028Z,70.31
2022-10-02T11:59:58.026Z,70.16
2022-10-02T12:00:58.031Z,70.81
2022-10-02T12:01:58.081Z,70.17
2022-10-02T12:02:58.117Z,70.34
2022-10-02T12:03:58.034Z,70.08
2022-10-02T12:04:58.012Z,70.34
2022-10-02T12:05:58.008Z,69.85
2022-10-02T12:06:58.010Z,70.53
2022-10-02T12:07:58.024Z,70.71
2022-10-02T12:08:58.021Z,70.12
2022-10-02T12:09:58.017Z,71.01
2022-10-02T12:10:58.006Z,71.57
2022-10-02T12:11:58.025Z,71.33
2022-10-02T12:12:58.018Z,71.79
2022-10-02T12:13:58.005Z,70.83
2022-10-02T12:14:58.008Z,72.15
2022-10-02T12:15:58.009Z,71.82
2022-10-02T12:16:58.050Z,73.22
2022-10-02T12:17:58.059Z,73.95
2022-10-02T12:18:58.012Z,73.14
2022-10-02T12:19:58.004Z,73.14
2022-10-02T12:20:58.021Z,73.53
2022-10-02T12:21:58.006Z,73.14
2022-10-02T12:22:58.047Z,73.65
2022-10-02T12:23:58.020Z,72.73
2022-10-02T12:24:58.023Z,72.27
2022-10-02T12:25:58.017Z,72.83
2022-10-02T12:26:58.044Z,72.59
2022-10-02T12:27:58.111Z,72.13
2022-10-02T12:28:58.036Z,72.06
2022-10-02T12:29:58.028Z,72.8
2022-10-02T12:30:58.076Z,72.51
2022-10-02T12:31:58.159Z,72.14
2022-10-02T12:32:58.035Z,72.92
2022-10-02T12:33:58.038Z,72
2022-10-02T12:34:58.019Z,72.47
2022-10-02T12:35:58.027Z,72.36
2022-10-02T12:36:58.022Z,72.66
2022-10-02T12:37:58.043Z,72.57
2022-10-02T12:38:58.017Z,72.57
2022-10-02T12:39:58.032Z,71.89
2022-10-02T12:40:58.019Z,72.83
2022-10-02T12:41:58.040Z,72.74
2022-10-02T12:42:58.038Z,72.95
2022-10-02T12:43:58.031Z,72.86
2022-10-02T12:44:58.024Z,73.12
2022-10-02T12:45:58.068Z,72.62
2022-10-02T12:46:58.018Z,72.41
2022-10-02T12:47:58.039Z,72.13
2022-10-02T12:48:58.022Z,72
2022-10-02T12:49:58.027Z,71.54
2022-10-02T12:51:01.016Z,71.9
2022-10-02T12:51:58.029Z,71.68
2022-10-02T12:52:58.035Z,71.31
2022-10-02T12:53:58.020Z,71.42
2022-10-02T12:54:58.028Z,70.96
2022-10-02T12:55:58.033Z,70.37